createdAt,value
2018-06-25T00:00:50.148Z,0.00
2018-06-25T00:01:50.145Z,0.00
2018-06-25T00:02:50.144Z,0.00
2018-06-25T00:03:50.144Z,0.00
2018-06-25T00:04:50.143Z,0.00
2018-06-25T00:05:50.142Z,0.00
2018-06-25T00:06:50.139Z,0.00
2018-06-25T00:07:50.138Z,0.00
2018-06-25T00:08:50.135Z,0.00
2018-06-25T00:09:50.134Z,0.00
2018-06-25T00:10:50.129Z,0.00
2018-06-25T00:11:50.128Z,0.00
2018-06-25T00:12:50.126Z,0.00
2018-06-25T00:13:50.124Z,0.00
2018-06-25T00:14:50.122Z,0.00
2018-06-25T00:15:50.122Z,0.00
2018-06-25T00:16:50.124Z,0.00
2018-06-25T00:17:50.117Z,0.00
2018-06-25T00:18:50.117Z,0.00
2018-06-25T00:19:50.115Z,0.00
2018-06-25T00:20:50.112Z,0.00
2018-06-25T00:21:50.112Z,0.00
2018-06-25T00:22:50.115Z,0.00
2018-06-25T00:23:50.111Z,0.00
2018-06-25T00:24:50.113Z,0.00
2018-06-25T00:25:50.105Z,0.00
2018-06-25T00:26:50.111Z,0.00
2018-06-25T00:27:50.107Z,0.00
2018-06-25T00:28:50.097Z,0.00
2018-06-25T00:29:50.106Z,0.00
2018-06-25T00:30:50.096Z,0.00
2018-06-25T00:31:50.093Z,0.00
2018-06-25T00:32:50.090Z,0.00
2018-06-25T00:33:50.089Z,0.00
2018-06-25T00:34:50.090Z,0.00
2018-06-25T00:35:50.086Z,0.00
2018-06-25T00:36:50.083Z,0.00
2018-06-25T00:37:50.082Z,0.00
2018-06-25T00:38:50.080Z,0.00
2018-06-25T00:39:50.078Z,0.00
2018-06-25T00:40:50.077Z,0.00
2018-06-25T00:41:50.075Z,0.00
2018-06-25T00:42:50.073Z,0.00
2018-06-25T00:43:50.073Z,0.00
2018-06-25T00:44:50.068Z,0.00
2018-06-25T00:45:50.067Z,0.00
2018-06-25T00:46:50.063Z,0.00
2018-06-25T00:47:50.063Z,0.00
2018-06-25T00:48:50.061Z,0.00
2018-06-25T00:49:50.057Z,0.00
2018-06-25T00:50:50.055Z,0.00
2018-06-25T00:51:50.062Z,0.00
2018-06-25T00:52:50.052Z,0.00
2018-06-25T00:53:50.053Z,0.00
2018-06-25T00:54:50.053Z,0.00
2018-06-25T00:55:50.048Z,0.00
2018-06-25T00:56:50.051Z,0.00
2018-06-25T00:57:50.041Z,0.00
2018-06-25T00:58:50.042Z,0.00
2018-06-25T00:59:50.041Z,0.00
2018-06-25T01:00:50.038Z,0.00
2018-06-25T01:01:50.035Z,0.00
2018-06-25T01:02:50.034Z,0.00
2018-06-25T01:03:50.035Z,0.00
2018-06-25T01:04:50.031Z,0.00
2018-06-25T01:05:50.029Z,0.00
2018-06-25T01:06:50.027Z,0.00
2018-06-25T01:07:50.025Z,0.00
2018-06-25T01:08:50.077Z,0.00
2018-06-25T01:09:50.020Z,0.00
2018-06-25T01:10:50.028Z,0.00
2018-06-25T01:11:50.016Z,0.00
2018-06-25T01:12:50.016Z,0.00
2018-06-25T01:13:50.012Z,0.00
2018-06-25T01:14:50.017Z,0.00
2018-06-25T01:15:50.008Z,0.00
2018-06-25T01:16:50.009Z,0.00
2018-06-25T01:17:50.006Z,0.00
2018-06-25T01:18:50.005Z,0.00
2018-06-25T01:19:50.000Z,0.00
2018-06-25T01:20:49.998Z,0.00
2018-06-25T01:21:49.998Z,0.00
2018-06-25T01:22:49.996Z,0.00
2018-06-25T01:23:49.993Z,0.00
2018-06-25T01:24:49.990Z,0.00
2018-06-25T01:25:49.992Z,0.00
2018-06-25T01:26:49.993Z,0.00
2018-06-25T01:27:49.985Z,0.00
2018-06-25T01:28:49.983Z,0.00
2018-06-25T01:29:49.982Z,0.00
2018-06-25T01:30:49.984Z,0.00
2018-06-25T01:31:49.980Z,0.00
2018-06-25T01:32:49.975Z,0.00
2018-06-25T01:33:49.980Z,0.00
2018-06-25T01:34:49.971Z,0.00
2018-06-25T01:35:49.970Z,0.00
2018-06-25T01:36:49.968Z,0.00
2018-06-25T01:37:49.965Z,0.00
2018-06-25T01:38:49.963Z,0.00
2018-06-25T01:39:49.962Z,0.00
2018-06-25T01:40:49.960Z,0.00
2018-06-25T01:41:49.958Z,0.00
2018-06-25T01:42:49.958Z,0.00
2018-06-25T01:43:49.953Z,0.00
2018-06-25T01:44:49.951Z,0.00
2018-06-25T01:45:49.948Z,0.00
2018-06-25T01:46:49.946Z,0.00
2018-06-25T01:47:49.950Z,0.00
2018-06-25T01:48:49.943Z,0.00
2018-06-25T01:49:49.945Z,0.00
2018-06-25T01:50:49.940Z,0.00
2018-06-25T01:51:49.938Z,0.00
2018-06-25T01:52:49.935Z,0.00
2018-06-25T01:53:49.933Z,0.00
2018-06-25T01:54:49.930Z,0.00
2018-06-25T01:55:49.930Z,0.00
2018-06-25T01:56:49.926Z,0.00
2018-06-25T01:57:49.976Z,0.00
2018-06-25T01:58:49.921Z,0.00
2018-06-25T01:59:49.925Z,0.00
2018-06-25T02:00:49.919Z,0.00
2018-06-25T02:01:49.917Z,0.00
2018-06-25T02:02:49.914Z,0.00
2018-06-25T02:03:49.913Z,0.00
2018-06-25T02:04:49.909Z,0.00
2018-06-25T02:05:49.907Z,0.00
2018-06-25T02:06:49.906Z,0.00
2018-06-25T02:07:49.901Z,0.00
2018-06-25T02:08:49.899Z,0.00
2018-06-25T02:09:49.896Z,0.00
2018-06-25T02:10:49.898Z,0.00
2018-06-25T02:11:49.895Z,0.00
2018-06-25T02:12:49.891Z,0.00
2018-06-25T02:13:49.890Z,0.00
2018-06-25T02:14:49.888Z,0.00
2018-06-25T02:15:49.888Z,0.00
2018-06-25T02:16:49.886Z,0.00
2018-06-25T02:17:49.880Z,0.00
2018-06-25T02:18:49.880Z,0.00
2018-06-25T02:19:49.880Z,0.00
2018-06-25T02:20:49.874Z,0.00
2018-06-25T02:21:49.873Z,0.00
2018-06-25T02:22:49.869Z,0.00
2018-06-25T02:23:49.869Z,0.00
2018-06-25T02:24:49.865Z,0.00
2018-06-25T02:25:49.863Z,0.00
2018-06-25T02:26:49.862Z,0.00
2018-06-25T02:27:49.865Z,0.00
2018-06-25T02:28:49.858Z,0.00
2018-06-25T02:29:49.852Z,0.00
2018-06-25T02:30:49.852Z,0.00
2018-06-25T02:31:49.849Z,0.00
2018-06-25T02:32:49.847Z,0.00
2018-06-25T02:33:49.846Z,4.00
2018-06-25T02:34:49.844Z,4.00
2018-06-25T02:35:49.842Z,4.00
2018-06-25T02:36:49.842Z,0.00
2018-06-25T02:37:49.837Z,0.00
2018-06-25T02:38:49.835Z,0.00
2018-06-25T02:39:49.831Z,0.00
2018-06-25T02:40:49.832Z,0.00
2018-06-25T02:41:49.826Z,4.00
2018-06-25T02:42:49.825Z,4.00
2018-06-25T02:43:49.824Z,0.00
2018-06-25T02:44:49.820Z,0.00
2018-06-25T02:45:49.819Z,4.00
2018-06-25T02:46:49.815Z,0.00
2018-06-25T02:47:49.815Z,4.00
2018-06-25T02:48:49.812Z,4.00
2018-06-25T02:49:49.811Z,4.00
2018-06-25T02:50:49.807Z,4.00
2018-06-25T02:51:49.805Z,8.00
2018-06-25T02:52:49.803Z,8.00
2018-06-25T02:53:49.801Z,8.00
2018-06-25T02:54:49.802Z,8.00
2018-06-25T02:55:49.797Z,12.00
2018-06-25T02:56:49.792Z,16.00
2018-06-25T02:57:49.790Z,12.00
2018-06-25T02:58:49.791Z,20.00
2018-06-25T02:59:49.789Z,20.00
2018-06-25T03:00:49.783Z,20.00
2018-06-25T03:01:49.781Z,24.00
2018-06-25T03:02:49.790Z,28.00
2018-06-25T03:03:49.783Z,32.00
2018-06-25T03:04:49.773Z,32.00
2018-06-25T03:05:49.771Z,40.00
2018-06-25T03:06:49.770Z,40.00
2018-06-25T03:07:49.768Z,44.00
2018-06-25T03:08:49.768Z,52.00
2018-06-25T03:09:49.763Z,56.00
2018-06-25T03:10:49.759Z,64.00
2018-06-25T03:11:49.757Z,72.00
2018-06-25T03:12:49.755Z,80.00
2018-06-25T03:13:49.755Z,88.00
2018-06-25T03:14:49.751Z,96.00
2018-06-25T03:15:49.752Z,108.00
2018-06-25T03:16:49.745Z,116.00
2018-06-25T03:17:49.741Z,124.00
2018-06-25T03:18:49.741Z,136.00
2018-06-25T03:19:49.738Z,144.00
2018-06-25T03:20:49.747Z,152.00
2018-06-25T03:21:49.732Z,164.00
2018-06-25T03:22:49.731Z,176.00
2018-06-25T03:23:49.729Z,192.00
2018-06-25T03:24:49.728Z,204.00
2018-06-25T03:25:49.724Z,220.00
2018-06-25T03:26:49.721Z,236.00
2018-06-25T03:27:49.719Z,248.00
2018-06-25T03:28:49.714Z,264.00
2018-06-25T03:29:49.715Z,280.00
2018-06-25T03:30:49.713Z,296.00
2018-06-25T03:31:49.707Z,312.00
2018-06-25T03:32:49.705Z,324.00
2018-06-25T03:33:49.705Z,336.00
2018-06-25T03:34:49.705Z,352.00
2018-06-25T03:35:49.703Z,372.00
2018-06-25T03:36:49.694Z,392.00
2018-06-25T03:37:49.694Z,416.00
2018-06-25T03:38:49.690Z,444.00
2018-06-25T03:39:49.689Z,472.00
2018-06-25T03:40:49.684Z,492.00
2018-06-25T03:41:49.683Z,520.00
2018-06-25T03:42:49.681Z,544.00
2018-06-25T03:43:49.678Z,572.00
2018-06-25T03:44:49.675Z,596.00
2018-06-25T03:45:49.673Z,616.00
2018-06-25T03:46:49.673Z,644.00
2018-06-25T03:47:49.668Z,672.00
2018-06-25T03:48:49.666Z,692.00
2018-06-25T03:49:49.663Z,712.00
2018-06-25T03:50:49.660Z,728.00
2018-06-25T03:51:49.661Z,764.00
2018-06-25T03:52:49.656Z,812.00
2018-06-25T03:53:49.654Z,848.00
2018-06-25T03:54:49.653Z,872.00
2018-06-25T03:55:49.651Z,884.00
2018-06-25T03:56:49.646Z,892.00
2018-06-25T03:57:49.647Z,908.00
2018-06-25T03:58:49.641Z,920.00
2018-06-25T03:59:49.639Z,920.00
2018-06-25T04:00:49.635Z,912.00
2018-06-25T04:01:49.635Z,908.00
2018-06-25T04:02:49.637Z,920.00
2018-06-25T04:03:49.631Z,920.00
2018-06-25T04:04:49.628Z,924.00
2018-06-25T04:05:49.626Z,920.00
2018-06-25T04:06:49.626Z,924.00
2018-06-25T04:07:49.620Z,928.00
2018-06-25T04:08:49.617Z,932.00
2018-06-25T04:09:49.616Z,944.00
2018-06-25T04:10:49.613Z,960.00
2018-06-25T04:11:49.611Z,976.00
2018-06-25T04:12:49.608Z,996.00
2018-06-25T04:13:49.605Z,1028.00
2018-06-25T04:14:49.606Z,1052.00
2018-06-25T04:15:49.605Z,1072.00
2018-06-25T04:16:49.600Z,1100.00
2018-06-25T04:17:49.598Z,1128.00
2018-06-25T04:18:49.596Z,1144.00
2018-06-25T04:19:49.592Z,1164.00
2018-06-25T04:20:49.630Z,1172.00
2018-06-25T04:21:49.589Z,1172.00
2018-06-25T04:22:49.585Z,1176.00
2018-06-25T04:23:49.595Z,1188.00
2018-06-25T04:24:49.582Z,1204.00
2018-06-25T04:25:49.578Z,1212.00
2018-06-25T04:26:49.580Z,1204.00
2018-06-25T04:27:49.575Z,1192.00
2018-06-25T04:28:49.571Z,1184.00
2018-06-25T04:29:49.569Z,1180.00
2018-06-25T04:30:49.680Z,1180.00
2018-06-25T04:31:49.565Z,1180.00
2018-06-25T04:32:49.563Z,1180.00
2018-06-25T04:33:49.560Z,1196.00
2018-06-25T04:34:49.559Z,1200.00
2018-06-25T04:35:49.557Z,1192.00
2018-06-25T04:36:49.552Z,1172.00
2018-06-25T04:37:49.554Z,1164.00
2018-06-25T04:38:49.553Z,1156.00
2018-06-25T04:39:49.546Z,1156.00
2018-06-25T04:40:49.548Z,1168.00
2018-06-25T04:41:49.543Z,1196.00
2018-06-25T04:42:49.540Z,1232.00
2018-06-25T04:43:49.538Z,1268.00
2018-06-25T04:44:49.533Z,1296.00
2018-06-25T04:45:49.536Z,1304.00
2018-06-25T04:46:49.531Z,1304.00
2018-06-25T04:47:49.527Z,1308.00
2018-06-25T04:48:49.526Z,1316.00
2018-06-25T04:49:49.522Z,1324.00
2018-06-25T04:50:49.522Z,1344.00
2018-06-25T04:51:49.520Z,1364.00
2018-06-25T04:52:49.516Z,1408.00
2018-06-25T04:53:49.515Z,1452.00
2018-06-25T04:54:49.511Z,1492.00
2018-06-25T04:55:49.508Z,1524.00
2018-06-25T04:56:49.506Z,1548.00
2018-06-25T04:57:49.505Z,1576.00
2018-06-25T04:58:49.502Z,1612.00
2018-06-25T04:59:49.501Z,1632.00
2018-06-25T05:00:49.518Z,1656.00
2018-06-25T05:01:49.497Z,1676.00
2018-06-25T05:02:49.498Z,1704.00
2018-06-25T05:03:49.497Z,1732.00
2018-06-25T05:04:49.490Z,1740.00
2018-06-25T05:05:49.489Z,1728.00
2018-06-25T05:06:49.486Z,1716.00
2018-06-25T05:07:49.484Z,1712.00
2018-06-25T05:08:49.518Z,1724.00
2018-06-25T05:09:49.478Z,1752.00
2018-06-25T05:10:49.477Z,1800.00
2018-06-25T05:11:49.477Z,1856.00
2018-06-25T05:12:49.474Z,1900.00
2018-06-25T05:13:49.469Z,1928.00
2018-06-25T05:14:49.468Z,1936.00
2018-06-25T05:15:49.466Z,1940.00
2018-06-25T05:16:49.463Z,1944.00
2018-06-25T05:17:49.462Z,1976.00
2018-06-25T05:18:49.458Z,1984.00
2018-06-25T05:19:49.458Z,2008.00
2018-06-25T05:20:49.456Z,2056.00
2018-06-25T05:21:49.458Z,2112.00
2018-06-25T05:22:49.490Z,2148.00
2018-06-25T05:23:49.452Z,2164.00
2018-06-25T05:24:49.446Z,2184.00
2018-06-25T05:25:49.443Z,2176.00
2018-06-25T05:26:49.443Z,2200.00
2018-06-25T05:27:49.441Z,2208.00
2018-06-25T05:28:49.437Z,2232.00
2018-06-25T05:29:49.432Z,2264.00
2018-06-25T05:30:49.433Z,2300.00
2018-06-25T05:31:49.432Z,2356.00
2018-06-25T05:32:49.428Z,2368.00
2018-06-25T05:33:49.427Z,2384.00
2018-06-25T05:34:49.423Z,2408.00
2018-06-25T05:35:49.422Z,2456.00
2018-06-25T05:36:49.421Z,2540.00
2018-06-25T05:37:49.418Z,2584.00
2018-06-25T05:38:49.408Z,2648.00
2018-06-25T05:39:49.416Z,2692.00
2018-06-25T05:40:49.409Z,2632.00
2018-06-25T05:41:49.407Z,2584.00
2018-06-25T05:42:49.409Z,2568.00
2018-06-25T05:43:49.400Z,2604.00
2018-06-25T05:44:49.402Z,2700.00
2018-06-25T05:45:49.398Z,2828.00
2018-06-25T05:46:49.397Z,2900.00
2018-06-25T05:47:49.395Z,2972.00
2018-06-25T05:48:49.450Z,3060.00
2018-06-25T05:49:49.388Z,3160.00
2018-06-25T05:50:49.387Z,3204.00
2018-06-25T05:51:49.385Z,3260.00
2018-06-25T05:52:49.382Z,3368.00
2018-06-25T05:53:49.382Z,3500.00
2018-06-25T05:54:49.376Z,3628.00
2018-06-25T05:55:49.377Z,3752.00
2018-06-25T05:56:49.373Z,3892.00
2018-06-25T05:57:49.371Z,4040.00
2018-06-25T05:58:49.383Z,4196.00
2018-06-25T05:59:49.370Z,4352.00
2018-06-25T06:00:49.364Z,4480.00
2018-06-25T06:01:49.363Z,4536.00
2018-06-25T06:02:49.361Z,4588.00
2018-06-25T06:03:49.360Z,4596.00
2018-06-25T06:04:49.356Z,4588.00
2018-06-25T06:05:49.355Z,4580.00
2018-06-25T06:06:49.353Z,4588.00
2018-06-25T06:07:49.351Z,4692.00
2018-06-25T06:08:49.348Z,4768.00
2018-06-25T06:09:49.347Z,4820.00
2018-06-25T06:10:49.346Z,4952.00
2018-06-25T06:11:49.342Z,5228.00
2018-06-25T06:12:49.342Z,5424.00
2018-06-25T06:13:49.392Z,5548.00
2018-06-25T06:14:49.349Z,5604.00
2018-06-25T06:15:49.339Z,5676.00
2018-06-25T06:16:49.335Z,5764.00
2018-06-25T06:17:49.334Z,5784.00
2018-06-25T06:18:49.331Z,5808.00
2018-06-25T06:19:49.331Z,5840.00
2018-06-25T06:20:49.329Z,5860.00
2018-06-25T06:21:49.328Z,5864.00
2018-06-25T06:22:49.328Z,5896.00
2018-06-25T06:23:49.325Z,6000.00
2018-06-25T06:24:49.325Z,6116.00
2018-06-25T06:25:49.321Z,6036.00
2018-06-25T06:26:49.322Z,6036.00
2018-06-25T06:27:49.318Z,5984.00
2018-06-25T06:28:49.317Z,6112.00
2018-06-25T06:29:49.314Z,5996.00
2018-06-25T06:30:49.313Z,6032.00
2018-06-25T06:31:49.313Z,6136.00
2018-06-25T06:32:49.311Z,6264.00
2018-06-25T06:33:49.310Z,6184.00
2018-06-25T06:34:49.309Z,6208.00
2018-06-25T06:35:49.308Z,6184.00
2018-06-25T06:36:49.305Z,6164.00
2018-06-25T06:37:49.304Z,6172.00
2018-06-25T06:38:49.306Z,6420.00
2018-06-25T06:39:49.316Z,6472.00
2018-06-25T06:40:49.300Z,6556.00
2018-06-25T06:41:49.298Z,6536.00
2018-06-25T06:42:49.298Z,6480.00
2018-06-25T06:43:49.297Z,6452.00
2018-06-25T06:44:49.294Z,6632.00
2018-06-25T06:45:49.295Z,6616.00
2018-06-25T06:46:49.294Z,6656.00
2018-06-25T06:47:49.296Z,6668.00
2018-06-25T06:48:49.290Z,6736.00
2018-06-25T06:49:49.290Z,6852.00
2018-06-25T06:50:49.288Z,6824.00
2018-06-25T06:51:49.288Z,6832.00
2018-06-25T06:52:49.284Z,6840.00
2018-06-25T06:53:49.285Z,6820.00
2018-06-25T06:54:49.285Z,6848.00
2018-06-25T06:55:49.286Z,6852.00
2018-06-25T06:56:49.273Z,6868.00
2018-06-25T06:57:49.281Z,6928.00
2018-06-25T06:58:49.277Z,6948.00
2018-06-25T06:59:49.275Z,6932.00
2018-06-25T07:00:49.276Z,6928.00
2018-06-25T07:01:49.264Z,6936.00
2018-06-25T07:02:49.269Z,6960.00
2018-06-25T07:03:49.272Z,6904.00
2018-06-25T07:04:49.284Z,6828.00
2018-06-25T07:05:49.266Z,6756.00
2018-06-25T07:06:49.268Z,6752.00
2018-06-25T07:07:49.268Z,6720.00
2018-06-25T07:08:49.264Z,6704.00
2018-06-25T07:09:49.262Z,6656.00
2018-06-25T07:10:49.264Z,6620.00
2018-06-25T07:11:49.261Z,6684.00
2018-06-25T07:12:49.260Z,6792.00
2018-06-25T07:13:49.260Z,6968.00
2018-06-25T07:14:49.251Z,7168.00
2018-06-25T07:15:49.257Z,7284.00
2018-06-25T07:16:49.255Z,7372.00
2018-06-25T07:17:49.256Z,7500.00
2018-06-25T07:18:49.254Z,7548.00
2018-06-25T07:19:49.258Z,7532.00
2018-06-25T07:20:49.286Z,7492.00
2018-06-25T07:21:49.253Z,7584.00
2018-06-25T07:22:49.251Z,7612.00
2018-06-25T07:23:49.254Z,7608.00
2018-06-25T07:24:49.255Z,7600.00
2018-06-25T07:25:49.251Z,7676.00
2018-06-25T07:26:49.250Z,7840.00
2018-06-25T07:27:49.249Z,8056.00
2018-06-25T07:28:49.260Z,8208.00
2018-06-25T07:29:49.252Z,8348.00
2018-06-25T07:30:49.247Z,8448.00
2018-06-25T07:31:49.256Z,8420.00
2018-06-25T07:32:49.246Z,8164.00
2018-06-25T07:33:49.247Z,7832.00
2018-06-25T07:34:49.247Z,7712.00
2018-06-25T07:35:49.245Z,8112.00
2018-06-25T07:36:49.245Z,8360.00
2018-06-25T07:37:49.245Z,8512.00
2018-06-25T07:38:49.244Z,8556.00
2018-06-25T07:39:49.243Z,8672.00
2018-06-25T07:40:49.243Z,8764.00
2018-06-25T07:41:49.242Z,8940.00
2018-06-25T07:42:49.244Z,8856.00
2018-06-25T07:43:49.243Z,8860.00
2018-06-25T07:44:49.238Z,8932.00
2018-06-25T07:45:49.242Z,9028.00
2018-06-25T07:46:49.239Z,9120.00
2018-06-25T07:47:49.241Z,9256.00
2018-06-25T07:48:49.241Z,9356.00
2018-06-25T07:49:49.241Z,9432.00
2018-06-25T07:50:49.240Z,9412.00
2018-06-25T07:51:49.240Z,9404.00
2018-06-25T07:52:49.240Z,9448.00
2018-06-25T07:53:49.238Z,9400.00
2018-06-25T07:54:49.241Z,9492.00
2018-06-25T07:55:49.239Z,9444.00
2018-06-25T07:56:49.239Z,9524.00
2018-06-25T07:57:49.237Z,9440.00
2018-06-25T07:58:49.235Z,9416.00
2018-06-25T07:59:49.236Z,9312.00
2018-06-25T08:00:49.240Z,9104.00
2018-06-25T08:01:49.237Z,8892.00
2018-06-25T08:02:49.234Z,8760.00
2018-06-25T08:03:49.236Z,8656.00
2018-06-25T08:04:49.253Z,8568.00
2018-06-25T08:05:49.234Z,8396.00
2018-06-25T08:06:49.234Z,8216.00
2018-06-25T08:07:49.236Z,8084.00
2018-06-25T08:08:49.233Z,8172.00
2018-06-25T08:09:49.299Z,8272.00
2018-06-25T08:10:49.234Z,8412.00
2018-06-25T08:11:49.232Z,8600.00
2018-06-25T08:12:49.233Z,8684.00
2018-06-25T08:13:49.230Z,8740.00
2018-06-25T08:14:49.230Z,8816.00
2018-06-25T08:15:49.230Z,8984.00
2018-06-25T08:16:49.229Z,9200.00
2018-06-25T08:17:49.229Z,9556.00
2018-06-25T08:18:49.231Z,9764.00
2018-06-25T08:19:49.230Z,10008.00
2018-06-25T08:20:49.232Z,10040.00
2018-06-25T08:21:49.230Z,10012.00
2018-06-25T08:22:49.229Z,10152.00
2018-06-25T08:23:49.227Z,10284.00
2018-06-25T08:24:49.236Z,10380.00
2018-06-25T08:25:49.228Z,10528.00
2018-06-25T08:26:49.227Z,10720.00
2018-06-25T08:27:49.225Z,10800.00
2018-06-25T08:28:49.236Z,10852.00
2018-06-25T08:29:49.274Z,10840.00
2018-06-25T08:30:49.227Z,10812.00
2018-06-25T08:31:49.231Z,10840.00
2018-06-25T08:32:49.225Z,10824.00
2018-06-25T08:33:49.235Z,10848.00
2018-06-25T08:34:49.228Z,10964.00
2018-06-25T08:35:49.228Z,11088.00
2018-06-25T08:36:49.226Z,11092.00
2018-06-25T08:37:49.227Z,11032.00
2018-06-25T08:38:49.230Z,10988.00
2018-06-25T08:39:49.229Z,10888.00
2018-06-25T08:40:49.229Z,10780.00
2018-06-25T08:41:49.233Z,10636.00
2018-06-25T08:42:49.227Z,10376.00
2018-06-25T08:43:49.230Z,10028.00
2018-06-25T08:44:49.229Z,9888.00
2018-06-25T08:45:49.233Z,9628.00
2018-06-25T08:46:49.294Z,9332.00
2018-06-25T08:47:49.228Z,9048.00
2018-06-25T08:48:49.228Z,8892.00
2018-06-25T08:49:49.229Z,8888.00
2018-06-25T08:50:49.229Z,8892.00
2018-06-25T08:51:49.231Z,8792.00
2018-06-25T08:52:49.225Z,8648.00
2018-06-25T08:53:49.229Z,8672.00
2018-06-25T08:54:49.230Z,8796.00
2018-06-25T08:55:49.232Z,9016.00
2018-06-25T08:56:49.231Z,9188.00
2018-06-25T08:57:49.230Z,9336.00
2018-06-25T08:58:49.230Z,9304.00
2018-06-25T08:59:49.232Z,9104.00
2018-06-25T09:00:49.230Z,9172.00
2018-06-25T09:01:49.233Z,9064.00
2018-06-25T09:02:49.235Z,9212.00
2018-06-25T09:03:49.254Z,9344.00
2018-06-25T09:04:49.229Z,9464.00
2018-06-25T09:05:49.230Z,9612.00
2018-06-25T09:06:49.233Z,9868.00
2018-06-25T09:07:49.232Z,10080.00
2018-06-25T09:08:49.234Z,10192.00
2018-06-25T09:09:49.239Z,10224.00
2018-06-25T09:10:49.233Z,10164.00
2018-06-25T09:11:49.237Z,9944.00
2018-06-25T09:12:49.234Z,9764.00
2018-06-25T09:13:49.232Z,9792.00
2018-06-25T09:14:49.237Z,9796.00
2018-06-25T09:15:49.236Z,9872.00
2018-06-25T09:16:49.233Z,10088.00
2018-06-25T09:17:49.236Z,10240.00
2018-06-25T09:18:49.233Z,10408.00
2018-06-25T09:19:49.237Z,10440.00
2018-06-25T09:20:49.235Z,10552.00
2018-06-25T09:21:49.237Z,10644.00
2018-06-25T09:22:49.238Z,10632.00
2018-06-25T09:23:49.236Z,10624.00
2018-06-25T09:24:49.238Z,10712.00
2018-06-25T09:25:49.239Z,10848.00
2018-06-25T09:26:49.243Z,11056.00
2018-06-25T09:27:49.278Z,11184.00
2018-06-25T09:28:49.241Z,11388.00
2018-06-25T09:29:49.241Z,11592.00
2018-06-25T09:30:49.245Z,11688.00
2018-06-25T09:31:49.244Z,11780.00
2018-06-25T09:32:49.241Z,11872.00
2018-06-25T09:33:49.246Z,12016.00
2018-06-25T09:34:49.250Z,12148.00
2018-06-25T09:35:49.246Z,12312.00
2018-06-25T09:36:49.251Z,12504.00
2018-06-25T09:37:49.250Z,12608.00
2018-06-25T09:38:49.249Z,12432.00
2018-06-25T09:39:49.251Z,12000.00
2018-06-25T09:40:49.255Z,11840.00
2018-06-25T09:41:49.319Z,11340.00
2018-06-25T09:42:49.255Z,11104.00
2018-06-25T09:43:49.254Z,10984.00
2018-06-25T09:44:49.254Z,11128.00
2018-06-25T09:45:49.257Z,11408.00
2018-06-25T09:46:49.273Z,11524.00
2018-06-25T09:47:49.262Z,11680.00
2018-06-25T09:48:49.259Z,11868.00
2018-06-25T09:49:49.261Z,12020.00
2018-06-25T09:50:49.261Z,12000.00
2018-06-25T09:51:49.262Z,11992.00
2018-06-25T09:52:49.263Z,12040.00
2018-06-25T09:53:49.274Z,11820.00
2018-06-25T09:54:49.324Z,11256.00
2018-06-25T09:55:49.268Z,11320.00
2018-06-25T09:56:49.275Z,11924.00
2018-06-25T09:57:49.270Z,12616.00
2018-06-25T09:58:49.271Z,12936.00
2018-06-25T09:59:49.275Z,13276.00
2018-06-25T10:00:49.274Z,13460.00
2018-06-25T10:01:49.280Z,13312.00
2018-06-25T10:02:49.275Z,13472.00
2018-06-25T10:03:49.277Z,13436.00
2018-06-25T10:04:49.282Z,13340.00
2018-06-25T10:05:49.280Z,13104.00
2018-06-25T10:06:49.281Z,12684.00
2018-06-25T10:07:49.285Z,12468.00
2018-06-25T10:08:49.281Z,12420.00
2018-06-25T10:09:49.284Z,12360.00
2018-06-25T10:10:49.286Z,12432.00
2018-06-25T10:11:49.292Z,11880.00
2018-06-25T10:12:49.290Z,11212.00
2018-06-25T10:13:49.288Z,10784.00
2018-06-25T10:14:49.292Z,10484.00
2018-06-25T10:15:49.294Z,10456.00
2018-06-25T10:16:49.293Z,10600.00
2018-06-25T10:17:49.296Z,10084.00
2018-06-25T10:18:49.299Z,10236.00
2018-06-25T10:19:49.298Z,10748.00
2018-06-25T10:20:49.301Z,10716.00
2018-06-25T10:21:49.303Z,10688.00
2018-06-25T10:22:49.304Z,10600.00
2018-06-25T10:23:49.305Z,10456.00
2018-06-25T10:24:49.304Z,10328.00
2018-06-25T10:25:49.308Z,10268.00
2018-06-25T10:26:49.309Z,10332.00
2018-06-25T10:27:49.309Z,10596.00
2018-06-25T10:28:49.310Z,10884.00
2018-06-25T10:29:49.319Z,11224.00
2018-06-25T10:30:49.315Z,11160.00
2018-06-25T10:31:49.315Z,10836.00
2018-06-25T10:32:49.373Z,10548.00
2018-06-25T10:33:49.319Z,10084.00
2018-06-25T10:34:49.377Z,9752.00
2018-06-25T10:35:49.320Z,9560.00
2018-06-25T10:36:49.325Z,9616.00
2018-06-25T10:37:49.328Z,10092.00
2018-06-25T10:38:49.327Z,11028.00
2018-06-25T10:39:49.327Z,11592.00
2018-06-25T10:40:49.327Z,11672.00
2018-06-25T10:41:49.329Z,11984.00
2018-06-25T10:42:49.330Z,12264.00
2018-06-25T10:43:49.334Z,12432.00
2018-06-25T10:44:49.332Z,12924.00
2018-06-25T10:45:49.336Z,12936.00
2018-06-25T10:46:49.338Z,13012.00
2018-06-25T10:47:49.337Z,12340.00
2018-06-25T10:48:49.343Z,12020.00
2018-06-25T10:49:49.341Z,11992.00
2018-06-25T10:50:49.343Z,12016.00
2018-06-25T10:51:49.344Z,12168.00
2018-06-25T10:52:49.346Z,12192.00
2018-06-25T10:53:49.348Z,12044.00
2018-06-25T10:54:49.350Z,11712.00
2018-06-25T10:55:49.358Z,11396.00
2018-06-25T10:56:49.353Z,10992.00
2018-06-25T10:57:49.354Z,10808.00
2018-06-25T10:58:49.356Z,10364.00
2018-06-25T10:59:49.461Z,10724.00
2018-06-25T11:00:49.363Z,12136.00
2018-06-25T11:01:49.361Z,12188.00
2018-06-25T11:02:49.365Z,11560.00
2018-06-25T11:03:49.362Z,10392.00
2018-06-25T11:04:49.366Z,10068.00
2018-06-25T11:05:49.373Z,9808.00
2018-06-25T11:06:49.370Z,9660.00
2018-06-25T11:07:49.464Z,8676.00
2018-06-25T11:08:49.373Z,8884.00
2018-06-25T11:09:49.373Z,7808.00
2018-06-25T11:10:49.374Z,8340.00
2018-06-25T11:11:49.378Z,8420.00
2018-06-25T11:12:49.449Z,8560.00
2018-06-25T11:13:49.383Z,7648.00
2018-06-25T11:14:49.382Z,7304.00
2018-06-25T11:15:49.383Z,7456.00
2018-06-25T11:16:49.390Z,7644.00
2018-06-25T11:17:49.384Z,7736.00
2018-06-25T11:18:49.389Z,8284.00
2018-06-25T11:19:49.388Z,8952.00
2018-06-25T11:20:49.389Z,9424.00
2018-06-25T11:21:49.391Z,11300.00
2018-06-25T11:22:49.393Z,12644.00
2018-06-25T11:23:49.395Z,16320.00
2018-06-25T11:24:49.396Z,15488.00
2018-06-25T11:25:49.399Z,17184.00
2018-06-25T11:26:49.463Z,18720.00
2018-06-25T11:27:49.453Z,19872.00
2018-06-25T11:28:49.406Z,21824.00
2018-06-25T11:29:49.403Z,28864.00
2018-06-25T11:30:49.407Z,46496.00
2018-06-25T11:31:49.407Z,51360.00
2018-06-25T11:32:49.409Z,11196.00
2018-06-25T11:33:49.411Z,9860.00
2018-06-25T11:34:49.412Z,9328.00
2018-06-25T11:35:49.425Z,9560.00
2018-06-25T11:36:49.421Z,9916.00
2018-06-25T11:37:49.419Z,10080.00
2018-06-25T11:38:49.422Z,10036.00
2018-06-25T11:39:49.422Z,10032.00
2018-06-25T11:40:49.426Z,10272.00
2018-06-25T11:41:49.439Z,10564.00
2018-06-25T11:42:49.431Z,10836.00
2018-06-25T11:43:49.432Z,11348.00
2018-06-25T11:44:49.436Z,10204.00
2018-06-25T11:45:49.439Z,15544.00
2018-06-25T11:46:49.438Z,9712.00
2018-06-25T11:47:49.442Z,9044.00
2018-06-25T11:48:49.444Z,9512.00
2018-06-25T11:49:49.447Z,23488.00
2018-06-25T11:50:49.451Z,56768.00
2018-06-25T11:51:49.586Z,56160.00
2018-06-25T11:52:49.458Z,55584.00
2018-06-25T11:53:49.455Z,55680.00
2018-06-25T11:54:49.459Z,56352.00
2018-06-25T11:55:49.461Z,57792.00
2018-06-25T11:56:49.481Z,48864.00
2018-06-25T11:57:49.466Z,49024.00
2018-06-25T11:58:49.470Z,47648.00
2018-06-25T11:59:49.472Z,54080.00
2018-06-25T12:00:49.479Z,54656.00
2018-06-25T12:01:49.536Z,54496.00
2018-06-25T12:02:49.580Z,56032.00
2018-06-25T12:03:49.489Z,46496.00
2018-06-25T12:04:49.497Z,56800.00
2018-06-25T12:05:49.499Z,8832.00
2018-06-25T12:06:49.501Z,7864.00
2018-06-25T12:07:49.505Z,8044.00
2018-06-25T12:08:49.509Z,8820.00
2018-06-25T12:09:49.513Z,9636.00
2018-06-25T12:10:49.521Z,10000.00
2018-06-25T12:11:49.523Z,10272.00
2018-06-25T12:12:49.525Z,10456.00
2018-06-25T12:13:49.530Z,13364.00
2018-06-25T12:14:49.534Z,20800.00
2018-06-25T12:15:49.536Z,13160.00
2018-06-25T12:16:49.541Z,11124.00
2018-06-25T12:17:49.544Z,10516.00
2018-06-25T12:18:49.546Z,10568.00
2018-06-25T12:19:49.562Z,11272.00